Temp: -0.8°C   Baro: 1010.0mb
  Wind: 0.0mph   Dir: N (352°)
  Rain: 0.0mm (0.0mm/hr)
  Solar: 0W/m2  Hum: 93%
 
Bath Spa Weather Historical Data
Daily Summary for January 12, 2019 Units:  Both    English   Metric
Next Day »
Daily Weekly Monthly Yearly Custom
  High: Low: Average:
Temperature: 50.7 °F /  10.4 °C 44.4 °F /  6.9 °C 47.8 °F /  8.8 °C
Dew Point: 46.9 °F /  8.3 °C 41.2 °F /  5.1 °C 44.2 °F /  6.8 °C
Humidity: 93% 78% 87%
Wind Speed: 20mph /  32.2km/h - 6.5mph /  10.5km/h
Wind Gust: 20mph /  32.2km/h - -
Wind direction- - WNW
Pressure: 30.4 in /  1029.3 hPa 30.2 in /  1021.2 hPa -
Precipitation: 0 in /  0.0 mm    
Historical Graphs
 
 
Tabular Data for January 12, 2019
Time Temperature Dew Point Pressure Wind direction Wind Speed Wind Gust Humidity Rainfall Rate (Hourly) solar
00:04 44.4 °F /  6.9 °C 41.2 °F /  5.1 °C 30.4in /  1029.3hPa Calm     88% 0in /  0.0mm 0.00 W/m2
00:09 44.6 °F /  7.0 °C 41.2 °F /  5.1 °C 30.4in /  1029.3hPa WNW 2.9mph /  4.7km/h 4mph /  6.4km/h 88% 0in /  0.0mm 0.00 W/m2
00:14 45 °F /  7.2 °C 41.5 °F /  5.3 °C 30.4in /  1029.3hPa NNW 0.9mph /  1.4km/h 3mph /  4.8km/h 88% 0in /  0.0mm 0.00 W/m2
00:19 45.1 °F /  7.3 °C 41.7 °F /  5.4 °C 30.4in /  1029.3hPa Calm   4mph /  6.4km/h 88% 0in /  0.0mm 0.00 W/m2
00:24 45.3 °F /  7.4 °C 41.9 °F /  5.5 °C 30.4in /  1029.3hPa WNW 2.9mph /  4.7km/h 7mph /  11.3km/h 88% 0in /  0.0mm 0.00 W/m2
00:29 45.3 °F /  7.4 °C 41.9 °F /  5.5 °C 30.4in /  1029.3hPa WNW 2.9mph /  4.7km/h 4mph /  6.4km/h 88% 0in /  0.0mm 0.00 W/m2
00:34 45.3 °F /  7.4 °C 41.9 °F /  5.5 °C 30.4in /  1029.3hPa WNW 0.9mph /  1.4km/h 4mph /  6.4km/h 88% 0in /  0.0mm 0.00 W/m2
00:39 45.3 °F /  7.4 °C 41.9 °F /  5.5 °C 30.4in /  1029.3hPa WNW 4mph /  6.4km/h 5mph /  8.0km/h 88% 0in /  0.0mm 0.00 W/m2
00:44 45.3 °F /  7.4 °C 41.9 °F /  5.5 °C 30.4in /  1029.0hPa WNW 2.9mph /  4.7km/h 4mph /  6.4km/h 88% 0in /  0.0mm 0.00 W/m2
00:49 45.3 °F /  7.4 °C 41.9 °F /  5.5 °C 30.4in /  1029.0hPa WNW 0.9mph /  1.4km/h 3mph /  4.8km/h 88% 0in /  0.0mm 0.00 W/m2
00:54 45.3 °F /  7.4 °C 41.9 °F /  5.5 °C 30.4in /  1029.0hPa WNW 0.9mph /  1.4km/h 2mph /  3.2km/h 88% 0in /  0.0mm 0.00 W/m2
00:59 45.3 °F /  7.4 °C 41.9 °F /  5.5 °C 30.4in /  1029.0hPa WNW 0.9mph /  1.4km/h 2mph /  3.2km/h 88% 0in /  0.0mm 0.00 W/m2
01:04 45.3 °F /  7.4 °C 42.3 °F /  5.7 °C 30.4in /  1029.0hPa WNW 0.9mph /  1.4km/h 3mph /  4.8km/h 89% 0in /  0.0mm 0.00 W/m2
01:09 45.3 °F /  7.4 °C 42.3 °F /  5.7 °C 30.4in /  1029.0hPa WNW 0.9mph /  1.4km/h 2mph /  3.2km/h 89% 0in /  0.0mm 0.00 W/m2
01:14 45.3 °F /  7.4 °C 42.3 °F /  5.7 °C 30.4in /  1028.7hPa NW 5mph /  8.0km/h 5mph /  8.0km/h 89% 0in /  0.0mm 0.00 W/m2
01:19 45.5 °F /  7.5 °C 42.1 °F /  5.6 °C 30.4in /  1029.0hPa Calm   3mph /  4.8km/h 88% 0in /  0.0mm 0.00 W/m2
01:24 45.5 °F /  7.5 °C 42.1 °F /  5.6 °C 30.4in /  1028.7hPa Calm   4mph /  6.4km/h 88% 0in /  0.0mm 0.00 W/m2
01:29 45.5 °F /  7.5 °C 42.1 °F /  5.6 °C 30.4in /  1028.7hPa Calm     88% 0in /  0.0mm 0.00 W/m2
01:34 45.7 °F /  7.6 °C 42.3 °F /  5.7 °C 30.4in /  1029.0hPa NW 0.9mph /  1.4km/h 3mph /  4.8km/h 88% 0in /  0.0mm 0.00 W/m2
01:39 45.7 °F /  7.6 °C 42.3 °F /  5.7 °C 30.4in /  1028.7hPa WNW 2.9mph /  4.7km/h 4mph /  6.4km/h 88% 0in /  0.0mm 0.00 W/m2
01:44 45.9 °F /  7.7 °C 42.3 °F /  5.7 °C 30.4in /  1029.0hPa WNW 4mph /  6.4km/h 6mph /  9.7km/h 87% 0in /  0.0mm 0.00 W/m2
01:49 46.2 °F /  7.9 °C 42.6 °F /  5.9 °C 30.4in /  1028.7hPa WNW 9mph /  14.5km/h 9mph /  14.5km/h 87% 0in /  0.0mm 0.00 W/m2
01:54 46.6 °F /  8.1 °C 43 °F /  6.1 °C 30.4in /  1028.7hPa West 4mph /  6.4km/h 11mph /  17.7km/h 87% 0in /  0.0mm 0.00 W/m2
01:59 46.8 °F /  8.2 °C 43.2 °F /  6.2 °C 30.4in /  1028.7hPa West 8.1mph /  13.0km/h 9mph /  14.5km/h 87% 0in /  0.0mm 0.00 W/m2
02:04 46.9 °F /  8.3 °C 43.3 °F /  6.3 °C 30.4in /  1028.7hPa WNW 6mph /  9.7km/h 9mph /  14.5km/h 87% 0in /  0.0mm 0.00 W/m2
02:09 46.9 °F /  8.3 °C 43.3 °F /  6.3 °C 30.4in /  1028.7hPa WNW 11mph /  17.7km/h 11mph /  17.7km/h 87% 0in /  0.0mm 0.00 W/m2
02:14 46.9 °F /  8.3 °C 43.3 °F /  6.3 °C 30.4in /  1028.7hPa West 4mph /  6.4km/h 12mph /  19.3km/h 87% 0in /  0.0mm 0.00 W/m2
02:19 46.9 °F /  8.3 °C 43.5 °F /  6.4 °C 30.4in /  1028.7hPa WNW 6mph /  9.7km/h 10mph /  16.1km/h 88% 0in /  0.0mm 0.00 W/m2
02:24 46.9 °F /  8.3 °C 43.5 °F /  6.4 °C 30.4in /  1028.3hPa WNW 4mph /  6.4km/h 7mph /  11.3km/h 88% 0in /  0.0mm 0.00 W/m2
02:29 46.9 °F /  8.3 °C 43.5 °F /  6.4 °C 30.4in /  1028.3hPa WNW 6.9mph /  11.1km/h 7mph /  11.3km/h 88% 0in /  0.0mm 0.00 W/m2
02:34 46.9 °F /  8.3 °C 43.5 °F /  6.4 °C 30.4in /  1028.3hPa WNW 4mph /  6.4km/h 5mph /  8.0km/h 88% 0in /  0.0mm 0.00 W/m2
02:39 46.9 °F /  8.3 °C 43.5 °F /  6.4 °C 30.4in /  1028.3hPa WSW 2.9mph /  4.7km/h 11mph /  17.7km/h 88% 0in /  0.0mm 0.00 W/m2
02:44 46.9 °F /  8.3 °C 43.5 °F /  6.4 °C 30.4in /  1028.3hPa WNW 4mph /  6.4km/h 11mph /  17.7km/h 88% 0in /  0.0mm 0.00 W/m2
02:49 46.9 °F /  8.3 °C 43.5 °F /  6.4 °C 30.4in /  1028.3hPa WNW 4.9mph /  7.9km/h 11mph /  17.7km/h 88% 0in /  0.0mm 0.00 W/m2
02:54 46.9 °F /  8.3 °C 43.5 °F /  6.4 °C 30.4in /  1028.3hPa WNW 8.1mph /  13.0km/h 10mph /  16.1km/h 88% 0in /  0.0mm 0.00 W/m2
02:59 46.8 °F /  8.2 °C 43.7 °F /  6.5 °C 30.4in /  1028.0hPa WNW 6mph /  9.7km/h 10mph /  16.1km/h 89% 0in /  0.0mm 0.00 W/m2
03:04 46.8 °F /  8.2 °C 43.7 °F /  6.5 °C 30.4in /  1028.0hPa West 4mph /  6.4km/h 16mph /  25.7km/h 89% 0in /  0.0mm 0.00 W/m2
03:09 46.9 °F /  8.3 °C 43.9 °F /  6.6 °C 30.4in /  1028.0hPa West 6.9mph /  11.1km/h 14mph /  22.5km/h 89% 0in /  0.0mm 0.00 W/m2
03:14 46.9 °F /  8.3 °C 43.9 °F /  6.6 °C 30.4in /  1028.0hPa West 8.9mph /  14.3km/h 12mph /  19.3km/h 89% 0in /  0.0mm 0.00 W/m2
03:19 46.9 °F /  8.3 °C 43.9 °F /  6.6 °C 30.4in /  1028.0hPa West 4.9mph /  7.9km/h 7mph /  11.3km/h 89% 0in /  0.0mm 0.00 W/m2
03:24 46.8 °F /  8.2 °C 43.7 °F /  6.5 °C 30.4in /  1027.7hPa West 6mph /  9.7km/h 9mph /  14.5km/h 89% 0in /  0.0mm 0.00 W/m2
03:29 46.8 °F /  8.2 °C 43.7 °F /  6.5 °C 30.4in /  1027.7hPa WNW 8.1mph /  13.0km/h 10mph /  16.1km/h 89% 0in /  0.0mm 0.00 W/m2
03:34 46.8 °F /  8.2 °C 43.7 °F /  6.5 °C 30.4in /  1027.7hPa WNW 4mph /  6.4km/h 9mph /  14.5km/h 89% 0in /  0.0mm 0.00 W/m2
03:39 46.8 °F /  8.2 °C 43.7 °F /  6.5 °C 30.3in /  1027.3hPa NW 6mph /  9.7km/h 9mph /  14.5km/h 89% 0in /  0.0mm 0.00 W/m2
03:44 46.9 °F /  8.3 °C 44.2 °F /  6.8 °C 30.3in /  1027.3hPa WNW 4.9mph /  7.9km/h 11mph /  17.7km/h 90% 0in /  0.0mm 0.00 W/m2
03:49 46.9 °F /  8.3 °C 44.2 °F /  6.8 °C 30.3in /  1027.3hPa WNW 6.9mph /  11.1km/h 13mph /  20.9km/h 90% 0in /  0.0mm 0.00 W/m2
03:54 47.1 °F /  8.4 °C 44.4 °F /  6.9 °C 30.3in /  1027.3hPa WNW 8.1mph /  13.0km/h 12mph /  19.3km/h 90% 0in /  0.0mm 0.00 W/m2
03:59 47.1 °F /  8.4 °C 44.4 °F /  6.9 °C 30.3in /  1027.3hPa West 4.9mph /  7.9km/h 11mph /  17.7km/h 90% 0in /  0.0mm 0.00 W/m2
04:04 47.1 °F /  8.4 °C 44.4 °F /  6.9 °C 30.3in /  1027.0hPa WNW 8.9mph /  14.3km/h 9mph /  14.5km/h 90% 0in /  0.0mm 0.00 W/m2
04:09 47.1 °F /  8.4 °C 44.4 °F /  6.9 °C 30.3in /  1027.0hPa WNW 13mph /  20.9km/h 13mph /  20.9km/h 90% 0in /  0.0mm 0.00 W/m2
04:14 47.1 °F /  8.4 °C 44.4 °F /  6.9 °C 30.3in /  1027.0hPa WNW 6mph /  9.7km/h 11mph /  17.7km/h 90% 0in /  0.0mm 0.00 W/m2
04:19 47.1 °F /  8.4 °C 44.4 °F /  6.9 °C 30.3in /  1027.0hPa West 8.1mph /  13.0km/h 8mph /  12.9km/h 90% 0in /  0.0mm 0.00 W/m2
04:24 47.1 °F /  8.4 °C 44.4 °F /  6.9 °C 30.3in /  1027.0hPa WNW 2mph /  3.2km/h 11mph /  17.7km/h 90% 0in /  0.0mm 0.00 W/m2
04:29 47.1 °F /  8.4 °C 44.4 °F /  6.9 °C 30.3in /  1027.0hPa WSW 4.9mph /  7.9km/h 7mph /  11.3km/h 90% 0in /  0.0mm 0.00 W/m2
04:34 47.1 °F /  8.4 °C 44.4 °F /  6.9 °C 30.3in /  1027.0hPa NW 8.1mph /  13.0km/h 9mph /  14.5km/h 90% 0in /  0.0mm 0.00 W/m2
04:39 47.1 °F /  8.4 °C 44.4 °F /  6.9 °C 30.3in /  1027.0hPa West 2.9mph /  4.7km/h 9mph /  14.5km/h 90% 0in /  0.0mm 0.00 W/m2
04:44 47.1 °F /  8.4 °C 44.4 °F /  6.9 °C 30.3in /  1027.0hPa WNW 2.9mph /  4.7km/h 8mph /  12.9km/h 90% 0in /  0.0mm 0.00 W/m2
04:49 47.1 °F /  8.4 °C 44.4 °F /  6.9 °C 30.3in /  1027.0hPa West 11mph /  17.7km/h 11mph /  17.7km/h 90% 0in /  0.0mm 0.00 W/m2
04:54 47.1 °F /  8.4 °C 44.4 °F /  6.9 °C 30.3in /  1026.6hPa West 4.9mph /  7.9km/h 7mph /  11.3km/h 90% 0in /  0.0mm 0.00 W/m2
04:59 47.1 °F /  8.4 °C 44.4 °F /  6.9 °C 30.3in /  1027.0hPa NW 2.9mph /  4.7km/h 10mph /  16.1km/h 90% 0in /  0.0mm 0.00 W/m2
05:04 47.1 °F /  8.4 °C 44.6 °F /  7.0 °C 30.3in /  1026.6hPa WSW 14mph /  22.5km/h 14mph /  22.5km/h 91% 0in /  0.0mm 0.00 W/m2
05:09 47.1 °F /  8.4 °C 44.6 °F /  7.0 °C 30.3in /  1026.6hPa West 6.9mph /  11.1km/h 11mph /  17.7km/h 91% 0in /  0.0mm 0.00 W/m2
05:14 47.1 °F /  8.4 °C 44.6 °F /  7.0 °C 30.3in /  1026.3hPa West 4mph /  6.4km/h 12mph /  19.3km/h 91% 0in /  0.0mm 0.00 W/m2
05:19 47.1 °F /  8.4 °C 44.6 °F /  7.0 °C 30.3in /  1026.6hPa WNW 15mph /  24.1km/h 15mph /  24.1km/h 91% 0in /  0.0mm 0.00 W/m2
05:24 47.1 °F /  8.4 °C 44.6 °F /  7.0 °C 30.3in /  1026.6hPa West 6mph /  9.7km/h 15mph /  24.1km/h 91% 0in /  0.0mm 0.00 W/m2
05:29 47.1 °F /  8.4 °C 45 °F /  7.2 °C 30.3in /  1026.3hPa WNW 16mph /  25.7km/h 16mph /  25.7km/h 92% 0in /  0.0mm 0.00 W/m2
05:34 47.1 °F /  8.4 °C 45 °F /  7.2 °C 30.3in /  1026.3hPa WSW 8.1mph /  13.0km/h 12mph /  19.3km/h 92% 0in /  0.0mm 0.00 W/m2
05:39 47.1 °F /  8.4 °C 44.6 °F /  7.0 °C 30.3in /  1026.0hPa West 10.1mph /  16.3km/h 12mph /  19.3km/h 91% 0in /  0.0mm 0.00 W/m2
05:44 47.3 °F /  8.5 °C 44.8 °F /  7.1 °C 30.3in /  1026.0hPa West 19mph /  30.6km/h 19mph /  30.6km/h 91% 0in /  0.0mm 0.00 W/m2
05:49 47.3 °F /  8.5 °C 44.8 °F /  7.1 °C 30.3in /  1026.0hPa WNW 8.1mph /  13.0km/h 17mph /  27.4km/h 91% 0in /  0.0mm 0.00 W/m2
05:54 47.5 °F /  8.6 °C 44.8 °F /  7.1 °C 30.3in /  1026.0hPa WNW 6mph /  9.7km/h 14mph /  22.5km/h 90% 0in /  0.0mm 0.00 W/m2
05:59 47.5 °F /  8.6 °C 44.4 °F /  6.9 °C 30.3in /  1026.0hPa WNW 6.9mph /  11.1km/h 9mph /  14.5km/h 89% 0in /  0.0mm 0.00 W/m2
06:04 47.5 °F /  8.6 °C 44.4 °F /  6.9 °C 30.3in /  1026.0hPa West 8.9mph /  14.3km/h 11mph /  17.7km/h 89% 0in /  0.0mm 0.00 W/m2
06:09 47.5 °F /  8.6 °C 44.4 °F /  6.9 °C 30.3in /  1026.0hPa NW 10.1mph /  16.3km/h 14mph /  22.5km/h 89% 0in /  0.0mm 0.00 W/m2
06:14 47.5 °F /  8.6 °C 44.4 °F /  6.9 °C 30.3in /  1026.0hPa West 6mph /  9.7km/h 11mph /  17.7km/h 89% 0in /  0.0mm 0.00 W/m2
06:19 47.3 °F /  8.5 °C 44.2 °F /  6.8 °C 30.3in /  1026.0hPa NNW 11mph /  17.7km/h 15mph /  24.1km/h 89% 0in /  0.0mm 0.00 W/m2
06:24 47.5 °F /  8.6 °C 44.4 °F /  6.9 °C 30.3in /  1025.6hPa West 6mph /  9.7km/h 11mph /  17.7km/h 89% 0in /  0.0mm 0.00 W/m2
06:29 47.5 °F /  8.6 °C 44.4 °F /  6.9 °C 30.3in /  1025.6hPa WNW 4.9mph /  7.9km/h 9mph /  14.5km/h 89% 0in /  0.0mm 0.00 W/m2
06:34 47.3 °F /  8.5 °C 44.2 °F /  6.8 °C 30.3in /  1025.6hPa West 4.9mph /  7.9km/h 13mph /  20.9km/h 89% 0in /  0.0mm 0.00 W/m2
06:39 47.3 °F /  8.5 °C 44.2 °F /  6.8 °C 30.3in /  1025.6hPa WNW 4.9mph /  7.9km/h 10mph /  16.1km/h 89% 0in /  0.0mm 0.00 W/m2
06:44 47.3 °F /  8.5 °C 44.2 °F /  6.8 °C 30.3in /  1025.6hPa NW 6mph /  9.7km/h 10mph /  16.1km/h 89% 0in /  0.0mm 0.00 W/m2
06:49 47.3 °F /  8.5 °C 44.2 °F /  6.8 °C 30.3in /  1025.6hPa West 4mph /  6.4km/h 9mph /  14.5km/h 89% 0in /  0.0mm 0.00 W/m2
06:54 47.3 °F /  8.5 °C 44.6 °F /  7.0 °C 30.3in /  1025.6hPa WNW 6mph /  9.7km/h 11mph /  17.7km/h 90% 0in /  0.0mm 0.00 W/m2
06:59 47.3 °F /  8.5 °C 44.6 °F /  7.0 °C 30.3in /  1025.6hPa WNW 2.9mph /  4.7km/h 10mph /  16.1km/h 90% 0in /  0.0mm 0.00 W/m2
07:04 47.3 °F /  8.5 °C 44.6 °F /  7.0 °C 30.3in /  1025.6hPa WNW 8.1mph /  13.0km/h 10mph /  16.1km/h 90% 0in /  0.0mm 0.00 W/m2
07:09 47.3 °F /  8.5 °C 44.6 °F /  7.0 °C 30.3in /  1025.6hPa WNW 6mph /  9.7km/h 9mph /  14.5km/h 90% 0in /  0.0mm 0.00 W/m2
07:14 47.1 °F /  8.4 °C 44.4 °F /  6.9 °C 30.3in /  1025.6hPa NW 2.9mph /  4.7km/h 10mph /  16.1km/h 90% 0in /  0.0mm 0.00 W/m2
07:19 47.1 °F /  8.4 °C 44.4 °F /  6.9 °C 30.3in /  1025.6hPa WNW 8.9mph /  14.3km/h 12mph /  19.3km/h 90% 0in /  0.0mm 0.00 W/m2
07:24 47.3 °F /  8.5 °C 44.6 °F /  7.0 °C 30.3in /  1025.6hPa WNW 6.9mph /  11.1km/h 14mph /  22.5km/h 90% 0in /  0.0mm 0.00 W/m2
07:29 47.3 °F /  8.5 °C 44.6 °F /  7.0 °C 30.3in /  1025.6hPa West 4.9mph /  7.9km/h 13mph /  20.9km/h 90% 0in /  0.0mm 0.00 W/m2
07:34 47.3 °F /  8.5 °C 44.6 °F /  7.0 °C 30.3in /  1025.6hPa West 11mph /  17.7km/h 13mph /  20.9km/h 90% 0in /  0.0mm 0.00 W/m2
07:39 47.3 °F /  8.5 °C 44.6 °F /  7.0 °C 30.3in /  1025.6hPa WNW 8.1mph /  13.0km/h 13mph /  20.9km/h 90% 0in /  0.0mm 0.00 W/m2
07:44 47.3 °F /  8.5 °C 44.6 °F /  7.0 °C 30.3in /  1025.6hPa West 4mph /  6.4km/h 11mph /  17.7km/h 90% 0in /  0.0mm 0.00 W/m2
07:49 47.3 °F /  8.5 °C 44.6 °F /  7.0 °C 30.3in /  1025.6hPa WNW 2mph /  3.2km/h 14mph /  22.5km/h 90% 0in /  0.0mm 0.00 W/m2
07:54 47.3 °F /  8.5 °C 44.6 °F /  7.0 °C 30.3in /  1025.3hPa West 6.9mph /  11.1km/h 13mph /  20.9km/h 90% 0in /  0.0mm 0.00 W/m2
07:59 47.3 °F /  8.5 °C 44.6 °F /  7.0 °C 30.3in /  1024.9hPa WNW 6.9mph /  11.1km/h 15mph /  24.1km/h 90% 0in /  0.0mm 0.00 W/m2
08:04 47.3 °F /  8.5 °C 44.6 °F /  7.0 °C 30.3in /  1024.9hPa WNW 8.9mph /  14.3km/h 10mph /  16.1km/h 90% 0in /  0.0mm 0.00 W/m2
08:09 47.5 °F /  8.6 °C 44.8 °F /  7.1 °C 30.3in /  1025.3hPa WNW 10.1mph /  16.3km/h 14mph /  22.5km/h 90% 0in /  0.0mm 0.00 W/m2
08:14 47.5 °F /  8.6 °C 44.8 °F /  7.1 °C 30.3in /  1025.3hPa West 8.9mph /  14.3km/h 15mph /  24.1km/h 90% 0in /  0.0mm 0.00 W/m2
08:19 47.5 °F /  8.6 °C 44.8 °F /  7.1 °C 30.3in /  1024.9hPa WNW 6.9mph /  11.1km/h 12mph /  19.3km/h 90% 0in /  0.0mm 0.00 W/m2
08:24 47.5 °F /  8.6 °C 44.8 °F /  7.1 °C 30.3in /  1024.9hPa WNW 4.9mph /  7.9km/h 13mph /  20.9km/h 90% 0in /  0.0mm 0.00 W/m2
08:29 47.7 °F /  8.7 °C 45 °F /  7.2 °C 30.3in /  1024.9hPa NNW 8.9mph /  14.3km/h 12mph /  19.3km/h 90% 0in /  0.0mm 5.00 W/m2
08:34 47.7 °F /  8.7 °C 45 °F /  7.2 °C 30.3in /  1024.9hPa West 11mph /  17.7km/h 15mph /  24.1km/h 90% 0in /  0.0mm 0.00 W/m2
08:39 47.7 °F /  8.7 °C 45 °F /  7.2 °C 30.3in /  1024.9hPa WNW 2.9mph /  4.7km/h 17mph /  27.4km/h 90% 0in /  0.0mm 0.00 W/m2
08:44 47.7 °F /  8.7 °C 45.1 °F /  7.3 °C 30.3in /  1024.9hPa West 6mph /  9.7km/h 14mph /  22.5km/h 91% 0in /  0.0mm 5.00 W/m2
08:49 47.7 °F /  8.7 °C 45.1 °F /  7.3 °C 30.3in /  1024.9hPa WNW 10.1mph /  16.3km/h 14mph /  22.5km/h 91% 0in /  0.0mm 7.00 W/m2
08:54 47.7 °F /  8.7 °C 45.1 °F /  7.3 °C 30.3in /  1024.9hPa WNW 8.9mph /  14.3km/h 12mph /  19.3km/h 91% 0in /  0.0mm 12.00 W/m2
08:59 47.7 °F /  8.7 °C 45.1 °F /  7.3 °C 30.3in /  1024.9hPa WNW 13mph /  20.9km/h 13mph /  20.9km/h 91% 0in /  0.0mm 9.00 W/m2
09:04 47.7 °F /  8.7 °C 45.5 °F /  7.5 °C 30.3in /  1024.9hPa WNW 8.1mph /  13.0km/h 11mph /  17.7km/h 92% 0in /  0.0mm 12.00 W/m2
09:09 47.8 °F /  8.8 °C 45.7 °F /  7.6 °C 30.3in /  1024.9hPa WNW 4mph /  6.4km/h 15mph /  24.1km/h 92% 0in /  0.0mm 14.00 W/m2
09:14 47.8 °F /  8.8 °C 45.7 °F /  7.6 °C 30.3in /  1024.9hPa NW 6mph /  9.7km/h 14mph /  22.5km/h 92% 0in /  0.0mm 14.00 W/m2
09:19 47.8 °F /  8.8 °C 45.7 °F /  7.6 °C 30.3in /  1024.9hPa WNW 15mph /  24.1km/h 15mph /  24.1km/h 92% 0in /  0.0mm 16.00 W/m2
09:24 47.8 °F /  8.8 °C 45.7 °F /  7.6 °C 30.3in /  1024.9hPa NW 6.9mph /  11.1km/h 10mph /  16.1km/h 92% 0in /  0.0mm 19.00 W/m2
09:29 47.8 °F /  8.8 °C 45.7 °F /  7.6 °C 30.3in /  1024.6hPa WNW 6.9mph /  11.1km/h 12mph /  19.3km/h 92% 0in /  0.0mm 19.00 W/m2
09:34 47.8 °F /  8.8 °C 45.7 °F /  7.6 °C 30.3in /  1024.9hPa WNW 4.9mph /  7.9km/h 9mph /  14.5km/h 92% 0in /  0.0mm 25.00 W/m2
09:39 47.8 °F /  8.8 °C 45.7 °F /  7.6 °C 30.3in /  1024.6hPa WNW 6.9mph /  11.1km/h 12mph /  19.3km/h 92% 0in /  0.0mm 26.00 W/m2
09:44 48 °F /  8.9 °C 45.9 °F /  7.7 °C 30.3in /  1024.9hPa West 4mph /  6.4km/h 11mph /  17.7km/h 92% 0in /  0.0mm 28.00 W/m2
09:49 48 °F /  8.9 °C 45.9 °F /  7.7 °C 30.3in /  1024.6hPa West 8.1mph /  13.0km/h 11mph /  17.7km/h 92% 0in /  0.0mm 40.00 W/m2
09:54 48 °F /  8.9 °C 46 °F /  7.8 °C 30.3in /  1024.6hPa WNW 8.1mph /  13.0km/h 19mph /  30.6km/h 93% 0in /  0.0mm 32.00 W/m2
09:59 48 °F /  8.9 °C 45.9 °F /  7.7 °C 30.3in /  1024.6hPa WNW 8.1mph /  13.0km/h 10mph /  16.1km/h 92% 0in /  0.0mm 28.00 W/m2
10:04 48.2 °F /  9.0 °C 46.2 °F /  7.9 °C 30.3in /  1024.6hPa WNW 11mph /  17.7km/h 15mph /  24.1km/h 93% 0in /  0.0mm 25.00 W/m2
10:09 48.2 °F /  9.0 °C 46.2 °F /  7.9 °C 30.3in /  1024.3hPa WNW 10.1mph /  16.3km/h 14mph /  22.5km/h 93% 0in /  0.0mm 21.00 W/m2
10:14 48.4 °F /  9.1 °C 46.4 °F /  8.0 °C 30.3in /  1024.6hPa WNW 4mph /  6.4km/h 14mph /  22.5km/h 93% 0in /  0.0mm 32.00 W/m2
10:19 48.4 °F /  9.1 °C 46.4 °F /  8.0 °C 30.3in /  1024.3hPa NW 6mph /  9.7km/h 9mph /  14.5km/h 93% 0in /  0.0mm 32.00 W/m2
10:24 48.4 °F /  9.1 °C 46.4 °F /  8.0 °C 30.3in /  1024.3hPa West 6mph /  9.7km/h 10mph /  16.1km/h 93% 0in /  0.0mm 35.00 W/m2
10:29 48.4 °F /  9.1 °C 46.4 °F /  8.0 °C 30.3in /  1024.3hPa WNW 6mph /  9.7km/h 11mph /  17.7km/h 93% 0in /  0.0mm 32.00 W/m2
10:34 48.6 °F /  9.2 °C 46.4 °F /  8.0 °C 30.2in /  1023.9hPa WNW 8.9mph /  14.3km/h 12mph /  19.3km/h 92% 0in /  0.0mm 42.00 W/m2
10:39 48.6 °F /  9.2 °C 46.4 °F /  8.0 °C 30.2in /  1023.9hPa West 6mph /  9.7km/h 15mph /  24.1km/h 92% 0in /  0.0mm 54.00 W/m2
10:44 48.7 °F /  9.3 °C 46.6 °F /  8.1 °C 30.2in /  1023.9hPa West 6.9mph /  11.1km/h 13mph /  20.9km/h 92% 0in /  0.0mm 51.00 W/m2
10:49 48.7 °F /  9.3 °C 46.6 °F /  8.1 °C 30.2in /  1023.9hPa West 15mph /  24.1km/h 15mph /  24.1km/h 92% 0in /  0.0mm 56.00 W/m2
10:54 48.7 °F /  9.3 °C 46.6 °F /  8.1 °C 30.2in /  1023.9hPa West 6mph /  9.7km/h 13mph /  20.9km/h 92% 0in /  0.0mm 58.00 W/m2
10:59 48.7 °F /  9.3 °C 46.6 °F /  8.1 °C 30.2in /  1023.9hPa West 4mph /  6.4km/h 7mph /  11.3km/h 92% 0in /  0.0mm 62.00 W/m2
11:04 48.7 °F /  9.3 °C 46.6 °F /  8.1 °C 30.2in /  1023.6hPa West 4mph /  6.4km/h 9mph /  14.5km/h 92% 0in /  0.0mm 54.00 W/m2
11:09 48.9 °F /  9.4 °C 46.8 °F /  8.2 °C 30.2in /  1023.6hPa WNW 4.9mph /  7.9km/h 12mph /  19.3km/h 92% 0in /  0.0mm 46.00 W/m2
11:14 48.9 °F /  9.4 °C 46.8 °F /  8.2 °C 30.2in /  1023.6hPa NNW 10.1mph /  16.3km/h 13mph /  20.9km/h 92% 0in /  0.0mm 53.00 W/m2
11:19 49.1 °F /  9.5 °C 46.9 °F /  8.3 °C 30.2in /  1023.6hPa WNW 6.9mph /  11.1km/h 11mph /  17.7km/h 92% 0in /  0.0mm 62.00 W/m2
11:24 49.1 °F /  9.5 °C 46.6 °F /  8.1 °C 30.2in /  1023.6hPa WNW 2mph /  3.2km/h 11mph /  17.7km/h 91% 0in /  0.0mm 77.00 W/m2
11:29 49.3 °F /  9.6 °C 46.8 °F /  8.2 °C 30.2in /  1023.9hPa WNW 6.9mph /  11.1km/h 9mph /  14.5km/h 91% 0in /  0.0mm 70.00 W/m2
11:34 49.5 °F /  9.7 °C 46.9 °F /  8.3 °C 30.2in /  1023.9hPa WNW 6mph /  9.7km/h 9mph /  14.5km/h 91% 0in /  0.0mm 67.00 W/m2
11:39 49.5 °F /  9.7 °C 46.6 °F /  8.1 °C 30.2in /  1023.9hPa WNW 6mph /  9.7km/h 13mph /  20.9km/h 90% 0in /  0.0mm 90.00 W/m2
11:44 49.5 °F /  9.7 °C 46.6 °F /  8.1 °C 30.2in /  1023.9hPa WNW 8.1mph /  13.0km/h 8mph /  12.9km/h 90% 0in /  0.0mm 90.00 W/m2
11:49 49.6 °F /  9.8 °C 46.8 °F /  8.2 °C 30.2in /  1023.6hPa West 8.1mph /  13.0km/h 8mph /  12.9km/h 90% 0in /  0.0mm 98.00 W/m2
11:54 49.6 °F /  9.8 °C 46.8 °F /  8.2 °C 30.2in /  1023.6hPa NW 8.9mph /  14.3km/h 12mph /  19.3km/h 90% 0in /  0.0mm 111.00 W/m2
11:59 49.8 °F /  9.9 °C 46.9 °F /  8.3 °C 30.2in /  1023.6hPa WNW 13mph /  20.9km/h 13mph /  20.9km/h 90% 0in /  0.0mm 114.00 W/m2
12:04 49.8 °F /  9.9 °C 46.8 °F /  8.2 °C 30.2in /  1023.6hPa West 6.9mph /  11.1km/h 11mph /  17.7km/h 89% 0in /  0.0mm 111.00 W/m2
12:09 50 °F /  10.0 °C 46.9 °F /  8.3 °C 30.2in /  1023.6hPa WNW 6mph /  9.7km/h 9mph /  14.5km/h 89% 0in /  0.0mm 109.00 W/m2
12:14 50 °F /  10.0 °C 46.6 °F /  8.1 °C 30.2in /  1023.6hPa NW 2.9mph /  4.7km/h 14mph /  22.5km/h 88% 0in /  0.0mm 107.00 W/m2
12:19 50 °F /  10.0 °C 46.2 °F /  7.9 °C 30.2in /  1023.2hPa WNW 12.1mph /  19.5km/h 15mph /  24.1km/h 87% 0in /  0.0mm 111.00 W/m2
12:24 50.4 °F /  10.2 °C 46.4 °F /  8.0 °C 30.2in /  1023.6hPa WNW 11mph /  17.7km/h 15mph /  24.1km/h 86% 0in /  0.0mm 116.00 W/m2
12:29 50.4 °F /  10.2 °C 46 °F /  7.8 °C 30.2in /  1023.6hPa NW 2mph /  3.2km/h 11mph /  17.7km/h 85% 0in /  0.0mm 120.00 W/m2
12:34 50.5 °F /  10.3 °C 45.5 °F /  7.5 °C 30.2in /  1023.6hPa NNW 0.9mph /  1.4km/h 13mph /  20.9km/h 83% 0in /  0.0mm 120.00 W/m2
12:39 50.5 °F /  10.3 °C 45.3 °F /  7.4 °C 30.2in /  1023.2hPa WNW 11mph /  17.7km/h 17mph /  27.4km/h 82% 0in /  0.0mm 120.00 W/m2
12:44 50.5 °F /  10.3 °C 45 °F /  7.2 °C 30.2in /  1023.2hPa WNW 8.9mph /  14.3km/h 15mph /  24.1km/h 81% 0in /  0.0mm 105.00 W/m2
12:49 50.7 °F /  10.4 °C 45.1 °F /  7.3 °C 30.2in /  1023.2hPa WNW 6.9mph /  11.1km/h 17mph /  27.4km/h 81% 0in /  0.0mm 91.00 W/m2
12:54 50.5 °F /  10.3 °C 44.6 °F /  7.0 °C 30.2in /  1023.2hPa WNW 8.1mph /  13.0km/h 13mph /  20.9km/h 80% 0in /  0.0mm 90.00 W/m2
12:59 50.5 °F /  10.3 °C 44.2 °F /  6.8 °C 30.2in /  1023.2hPa West 6mph /  9.7km/h 13mph /  20.9km/h 79% 0in /  0.0mm 84.00 W/m2
13:04 50.5 °F /  10.3 °C 44.2 °F /  6.8 °C 30.2in /  1022.9hPa WNW 6mph /  9.7km/h 10mph /  16.1km/h 79% 0in /  0.0mm 74.00 W/m2
13:09 50.5 °F /  10.3 °C 44.2 °F /  6.8 °C 30.2in /  1023.2hPa WNW 4mph /  6.4km/h 9mph /  14.5km/h 79% 0in /  0.0mm 54.00 W/m2
13:14 50.5 °F /  10.3 °C 44.6 °F /  7.0 °C 30.2in /  1023.2hPa WNW 8.1mph /  13.0km/h 13mph /  20.9km/h 80% 0in /  0.0mm 56.00 W/m2
13:19 50.5 °F /  10.3 °C 44.6 °F /  7.0 °C 30.2in /  1023.2hPa West 8.1mph /  13.0km/h 11mph /  17.7km/h 80% 0in /  0.0mm 65.00 W/m2
13:24 50.4 °F /  10.2 °C 44.8 °F /  7.1 °C 30.2in /  1022.9hPa WNW 14mph /  22.5km/h 14mph /  22.5km/h 81% 0in /  0.0mm 58.00 W/m2
13:29 50.2 °F /  10.1 °C 45 °F /  7.2 °C 30.2in /  1022.9hPa West 20mph /  32.2km/h 20mph /  32.2km/h 82% 0in /  0.0mm 76.00 W/m2
13:34 50 °F /  10.0 °C 44.8 °F /  7.1 °C 30.2in /  1022.9hPa WNW 4.9mph /  7.9km/h 11mph /  17.7km/h 82% 0in /  0.0mm 90.00 W/m2
13:39 50 °F /  10.0 °C 44.8 °F /  7.1 °C 30.2in /  1022.9hPa WNW 4.9mph /  7.9km/h 13mph /  20.9km/h 82% 0in /  0.0mm 102.00 W/m2
13:44 49.8 °F /  9.9 °C 44.6 °F /  7.0 °C 30.2in /  1022.9hPa West 8.1mph /  13.0km/h 11mph /  17.7km/h 82% 0in /  0.0mm 111.00 W/m2
13:49 49.8 °F /  9.9 °C 44.6 °F /  7.0 °C 30.2in /  1022.9hPa WNW 6.9mph /  11.1km/h 17mph /  27.4km/h 82% 0in /  0.0mm 86.00 W/m2
13:54 49.8 °F /  9.9 °C 44.6 °F /  7.0 °C 30.2in /  1022.9hPa WNW 14.1mph /  22.7km/h 14mph /  22.5km/h 82% 0in /  0.0mm 86.00 W/m2
13:59 49.8 °F /  9.9 °C 44.6 °F /  7.0 °C 30.2in /  1022.9hPa WNW 2.9mph /  4.7km/h 13mph /  20.9km/h 82% 0in /  0.0mm 79.00 W/m2
14:04 49.8 °F /  9.9 °C 44.6 °F /  7.0 °C 30.2in /  1022.9hPa WNW 8.1mph /  13.0km/h 11mph /  17.7km/h 82% 0in /  0.0mm 65.00 W/m2
14:09 49.8 °F /  9.9 °C 44.6 °F /  7.0 °C 30.2in /  1022.9hPa NW 8.9mph /  14.3km/h 11mph /  17.7km/h 82% 0in /  0.0mm 70.00 W/m2
14:14 49.8 °F /  9.9 °C 44.2 °F /  6.8 °C 30.2in /  1022.6hPa WNW 8.1mph /  13.0km/h 12mph /  19.3km/h 81% 0in /  0.0mm 76.00 W/m2
14:19 49.8 °F /  9.9 °C 43.9 °F /  6.6 °C 30.2in /  1022.6hPa WNW 11mph /  17.7km/h 12mph /  19.3km/h 80% 0in /  0.0mm 79.00 W/m2
14:24 49.8 °F /  9.9 °C 43.9 °F /  6.6 °C 30.2in /  1022.6hPa WNW 4.9mph /  7.9km/h 16mph /  25.7km/h 80% 0in /  0.0mm 81.00 W/m2
14:29 49.8 °F /  9.9 °C 43.5 °F /  6.4 °C 30.2in /  1022.6hPa West 4mph /  6.4km/h 17mph /  27.4km/h 79% 0in /  0.0mm 77.00 W/m2
14:34 49.8 °F /  9.9 °C 43.9 °F /  6.6 °C 30.2in /  1022.6hPa NW 6mph /  9.7km/h 12mph /  19.3km/h 80% 0in /  0.0mm 77.00 W/m2
14:39 49.6 °F /  9.8 °C 43.7 °F /  6.5 °C 30.2in /  1022.6hPa WNW 12.1mph /  19.5km/h 13mph /  20.9km/h 80% 0in /  0.0mm 84.00 W/m2
14:44 49.6 °F /  9.8 °C 43.7 °F /  6.5 °C 30.2in /  1022.6hPa West 15mph /  24.1km/h 15mph /  24.1km/h 80% 0in /  0.0mm 84.00 W/m2
14:49 49.6 °F /  9.8 °C 43.7 °F /  6.5 °C 30.2in /  1022.6hPa WNW 4.9mph /  7.9km/h 16mph /  25.7km/h 80% 0in /  0.0mm 77.00 W/m2
14:54 49.6 °F /  9.8 °C 43.3 °F /  6.3 °C 30.2in /  1022.6hPa NW 6mph /  9.7km/h 7mph /  11.3km/h 79% 0in /  0.0mm 62.00 W/m2
14:59 49.6 °F /  9.8 °C 43.3 °F /  6.3 °C 30.2in /  1022.6hPa NNW 15mph /  24.1km/h 15mph /  24.1km/h 79% 0in /  0.0mm 54.00 W/m2
15:04 49.6 °F /  9.8 °C 43 °F /  6.1 °C 30.2in /  1022.6hPa NNW 6mph /  9.7km/h 10mph /  16.1km/h 78% 0in /  0.0mm 49.00 W/m2
15:09 49.6 °F /  9.8 °C 43 °F /  6.1 °C 30.2in /  1022.6hPa NW 6.9mph /  11.1km/h 11mph /  17.7km/h 78% 0in /  0.0mm 47.00 W/m2
15:14 49.6 °F /  9.8 °C 43 °F /  6.1 °C 30.2in /  1022.6hPa West 6mph /  9.7km/h 9mph /  14.5km/h 78% 0in /  0.0mm 44.00 W/m2
15:19 49.6 °F /  9.8 °C 43 °F /  6.1 °C 30.2in /  1022.6hPa WNW 2.9mph /  4.7km/h 14mph /  22.5km/h 78% 0in /  0.0mm 44.00 W/m2
15:24 49.5 °F /  9.7 °C 43.2 °F /  6.2 °C 30.2in /  1022.6hPa WNW 8.1mph /  13.0km/h 9mph /  14.5km/h 79% 0in /  0.0mm 42.00 W/m2
15:29 49.1 °F /  9.5 °C 42.8 °F /  6.0 °C 30.2in /  1022.6hPa WNW 4.9mph /  7.9km/h 8mph /  12.9km/h 79% 0in /  0.0mm 42.00 W/m2
15:34 48.9 °F /  9.4 °C 43 °F /  6.1 °C 30.2in /  1022.2hPa WNW 4.9mph /  7.9km/h 12mph /  19.3km/h 80% 0in /  0.0mm 37.00 W/m2
15:39 48.7 °F /  9.3 °C 43.2 °F /  6.2 °C 30.2in /  1022.6hPa WNW 16mph /  25.7km/h 16mph /  25.7km/h 81% 0in /  0.0mm 32.00 W/m2
15:44 48.7 °F /  9.3 °C 43.2 °F /  6.2 °C 30.2in /  1022.6hPa WNW 4.9mph /  7.9km/h 19mph /  30.6km/h 81% 0in /  0.0mm 26.00 W/m2
15:49 48.6 °F /  9.2 °C 43.3 °F /  6.3 °C 30.2in /  1022.6hPa WNW 4mph /  6.4km/h 13mph /  20.9km/h 82% 0in /  0.0mm 21.00 W/m2
15:54 48.6 °F /  9.2 °C 43.3 °F /  6.3 °C 30.2in /  1022.6hPa WNW 14mph /  22.5km/h 14mph /  22.5km/h 82% 0in /  0.0mm 18.00 W/m2
15:59 48.6 °F /  9.2 °C 43.3 °F /  6.3 °C 30.2in /  1022.2hPa West 8.1mph /  13.0km/h 12mph /  19.3km/h 82% 0in /  0.0mm 12.00 W/m2
16:04 48.6 °F /  9.2 °C 43.3 °F /  6.3 °C 30.2in /  1022.6hPa WNW 8.1mph /  13.0km/h 10mph /  16.1km/h 82% 0in /  0.0mm 7.00 W/m2
16:09 48.6 °F /  9.2 °C 43.3 °F /  6.3 °C 30.2in /  1022.6hPa West 6.9mph /  11.1km/h 11mph /  17.7km/h 82% 0in /  0.0mm 5.00 W/m2
16:14 48.6 °F /  9.2 °C 43.3 °F /  6.3 °C 30.2in /  1022.6hPa West 8.1mph /  13.0km/h 12mph /  19.3km/h 82% 0in /  0.0mm 0.00 W/m2
16:19 48.6 °F /  9.2 °C 43.3 °F /  6.3 °C 30.2in /  1022.6hPa West 4mph /  6.4km/h 10mph /  16.1km/h 82% 0in /  0.0mm 0.00 W/m2
16:24 48.4 °F /  9.1 °C 43.2 °F /  6.2 °C 30.2in /  1022.6hPa West 6mph /  9.7km/h 10mph /  16.1km/h 82% 0in /  0.0mm 0.00 W/m2
16:29 48.2 °F /  9.0 °C 43 °F /  6.1 °C 30.2in /  1022.6hPa West 6mph /  9.7km/h 14mph /  22.5km/h 82% 0in /  0.0mm 0.00 W/m2
16:34 48.2 °F /  9.0 °C 43.3 °F /  6.3 °C 30.2in /  1022.6hPa WNW 10.1mph /  16.3km/h 14mph /  22.5km/h 83% 0in /  0.0mm 0.00 W/m2
16:39 48.2 °F /  9.0 °C 43 °F /  6.1 °C 30.2in /  1022.6hPa WNW 8.1mph /  13.0km/h 13mph /  20.9km/h 82% 0in /  0.0mm 0.00 W/m2
16:44 48.2 °F /  9.0 °C 43 °F /  6.1 °C 30.2in /  1022.6hPa WNW 2.9mph /  4.7km/h 8mph /  12.9km/h 82% 0in /  0.0mm 0.00 W/m2
16:49 48 °F /  8.9 °C 42.8 °F /  6.0 °C 30.2in /  1022.6hPa WNW 4.9mph /  7.9km/h 10mph /  16.1km/h 82% 0in /  0.0mm 0.00 W/m2
16:54 47.8 °F /  8.8 °C 42.6 °F /  5.9 °C 30.2in /  1022.6hPa West 8.1mph /  13.0km/h 8mph /  12.9km/h 82% 0in /  0.0mm 0.00 W/m2
16:59 47.8 °F /  8.8 °C 42.6 °F /  5.9 °C 30.2in /  1022.2hPa WNW 4mph /  6.4km/h 5mph /  8.0km/h 82% 0in /  0.0mm 0.00 W/m2
17:04 47.8 °F /  8.8 °C 42.6 °F /  5.9 °C 30.2in /  1022.6hPa NW 6mph /  9.7km/h 8mph /  12.9km/h 82% 0in /  0.0mm 0.00 W/m2
17:09 47.8 °F /  8.8 °C 42.6 °F /  5.9 °C 30.2in /  1022.6hPa West 10.1mph /  16.3km/h 12mph /  19.3km/h 82% 0in /  0.0mm 0.00 W/m2
17:14 47.7 °F /  8.7 °C 42.4 °F /  5.8 °C 30.2in /  1022.6hPa NW 2mph /  3.2km/h 9mph /  14.5km/h 82% 0in /  0.0mm 0.00 W/m2
17:19 47.7 °F /  8.7 °C 42.4 °F /  5.8 °C 30.2in /  1022.2hPa WNW 6mph /  9.7km/h 7mph /  11.3km/h 82% 0in /  0.0mm 0.00 W/m2
17:24 47.5 °F /  8.6 °C 42.3 °F /  5.7 °C 30.2in /  1022.2hPa West 2.9mph /  4.7km/h 6mph /  9.7km/h 82% 0in /  0.0mm 0.00 W/m2
17:29 47.3 °F /  8.5 °C 42.1 °F /  5.6 °C 30.2in /  1022.2hPa West 2mph /  3.2km/h 8mph /  12.9km/h 82% 0in /  0.0mm 0.00 W/m2
17:34 47.3 °F /  8.5 °C 42.1 °F /  5.6 °C 30.2in /  1022.6hPa WNW 0.9mph /  1.4km/h 5mph /  8.0km/h 82% 0in /  0.0mm 0.00 W/m2
17:39 47.3 °F /  8.5 °C 42.1 °F /  5.6 °C 30.2in /  1022.2hPa WNW 4mph /  6.4km/h 8mph /  12.9km/h 82% 0in /  0.0mm 0.00 W/m2
17:44 47.3 °F /  8.5 °C 42.1 °F /  5.6 °C 30.2in /  1022.6hPa WNW 4.9mph /  7.9km/h 8mph /  12.9km/h 82% 0in /  0.0mm 0.00 W/m2
17:49 47.1 °F /  8.4 °C 42.3 °F /  5.7 °C 30.2in /  1022.2hPa West 6.9mph /  11.1km/h 10mph /  16.1km/h 83% 0in /  0.0mm 0.00 W/m2
17:54 47.1 °F /  8.4 °C 42.3 °F /  5.7 °C 30.2in /  1022.6hPa West 8.9mph /  14.3km/h 12mph /  19.3km/h 83% 0in /  0.0mm 0.00 W/m2
17:59 47.3 °F /  8.5 °C 42.4 °F /  5.8 °C 30.2in /  1022.2hPa West 8.1mph /  13.0km/h 13mph /  20.9km/h 83% 0in /  0.0mm 0.00 W/m2
18:04 47.1 °F /  8.4 °C 42.6 °F /  5.9 °C 30.2in /  1022.2hPa West 8.1mph /  13.0km/h 12mph /  19.3km/h 84% 0in /  0.0mm 0.00 W/m2
18:09 47.1 °F /  8.4 °C 42.6 °F /  5.9 °C 30.2in /  1022.2hPa West 4.9mph /  7.9km/h 10mph /  16.1km/h 84% 0in /  0.0mm 0.00 W/m2
18:14 47.1 °F /  8.4 °C 42.6 °F /  5.9 °C 30.2in /  1022.2hPa West 6.9mph /  11.1km/h 13mph /  20.9km/h 84% 0in /  0.0mm 0.00 W/m2
18:19 47.1 °F /  8.4 °C 42.8 °F /  6.0 °C 30.2in /  1022.2hPa WSW 6.9mph /  11.1km/h 10mph /  16.1km/h 85% 0in /  0.0mm 0.00 W/m2
18:24 47.1 °F /  8.4 °C 42.8 °F /  6.0 °C 30.2in /  1022.2hPa WNW 2.9mph /  4.7km/h 13mph /  20.9km/h 85% 0in /  0.0mm 0.00 W/m2
18:29 47.1 °F /  8.4 °C 42.8 °F /  6.0 °C 30.2in /  1022.2hPa WNW 10.1mph /  16.3km/h 13mph /  20.9km/h 85% 0in /  0.0mm 0.00 W/m2
18:34 47.1 °F /  8.4 °C 43.2 °F /  6.2 °C 30.2in /  1022.2hPa WNW 6.9mph /  11.1km/h 11mph /  17.7km/h 86% 0in /  0.0mm 0.00 W/m2
18:39 47.3 °F /  8.5 °C 43.3 °F /  6.3 °C 30.2in /  1022.2hPa WNW 4mph /  6.4km/h 9mph /  14.5km/h 86% 0in /  0.0mm 0.00 W/m2
18:44 47.3 °F /  8.5 °C 43.3 °F /  6.3 °C 30.2in /  1022.2hPa WSW 6mph /  9.7km/h 11mph /  17.7km/h 86% 0in /  0.0mm 0.00 W/m2
18:49 47.5 °F /  8.6 °C 43.5 °F /  6.4 °C 30.2in /  1022.2hPa WNW 6.9mph /  11.1km/h 12mph /  19.3km/h 86% 0in /  0.0mm 0.00 W/m2
18:54 47.5 °F /  8.6 °C 43.5 °F /  6.4 °C 30.2in /  1022.2hPa West 11mph /  17.7km/h 13mph /  20.9km/h 86% 0in /  0.0mm 0.00 W/m2
18:59 47.5 °F /  8.6 °C 43.5 °F /  6.4 °C 30.2in /  1022.2hPa West 6.9mph /  11.1km/h 8mph /  12.9km/h 86% 0in /  0.0mm 0.00 W/m2
19:04 47.5 °F /  8.6 °C 43.5 °F /  6.4 °C 30.2in /  1022.2hPa WNW 4.9mph /  7.9km/h 12mph /  19.3km/h 86% 0in /  0.0mm 0.00 W/m2
19:09 47.7 °F /  8.7 °C 43.7 °F /  6.5 °C 30.2in /  1022.2hPa WNW 6.9mph /  11.1km/h 11mph /  17.7km/h 86% 0in /  0.0mm 0.00 W/m2
19:14 47.7 °F /  8.7 °C 43.7 °F /  6.5 °C 30.2in /  1022.2hPa West 6.9mph /  11.1km/h 11mph /  17.7km/h 86% 0in /  0.0mm 0.00 W/m2
19:19 47.7 °F /  8.7 °C 43.7 °F /  6.5 °C 30.2in /  1022.2hPa NW 13mph /  20.9km/h 13mph /  20.9km/h 86% 0in /  0.0mm 0.00 W/m2
19:24 47.7 °F /  8.7 °C 43.7 °F /  6.5 °C 30.2in /  1021.9hPa WNW 16mph /  25.7km/h 16mph /  25.7km/h 86% 0in /  0.0mm 0.00 W/m2
19:29 47.7 °F /  8.7 °C 43.7 °F /  6.5 °C 30.2in /  1021.9hPa NW 8.1mph /  13.0km/h 15mph /  24.1km/h 86% 0in /  0.0mm 0.00 W/m2
19:34 47.7 °F /  8.7 °C 43.7 °F /  6.5 °C 30.2in /  1021.9hPa WNW 12.1mph /  19.5km/h 12mph /  19.3km/h 86% 0in /  0.0mm 0.00 W/m2
19:39 47.7 °F /  8.7 °C 43.7 °F /  6.5 °C 30.2in /  1021.9hPa WNW 6mph /  9.7km/h 14mph /  22.5km/h 86% 0in /  0.0mm 0.00 W/m2
19:44 47.7 °F /  8.7 °C 43.7 °F /  6.5 °C 30.2in /  1021.9hPa WNW 6.9mph /  11.1km/h 11mph /  17.7km/h 86% 0in /  0.0mm 0.00 W/m2
19:49 47.7 °F /  8.7 °C 44.1 °F /  6.7 °C 30.2in /  1021.9hPa WSW 11mph /  17.7km/h 11mph /  17.7km/h 87% 0in /  0.0mm 0.00 W/m2
19:54 47.7 °F /  8.7 °C 44.1 °F /  6.7 °C 30.2in /  1022.2hPa West 2.9mph /  4.7km/h 9mph /  14.5km/h 87% 0in /  0.0mm 0.00 W/m2
19:59 47.7 °F /  8.7 °C 44.1 °F /  6.7 °C 30.2in /  1022.2hPa WNW 2.9mph /  4.7km/h 9mph /  14.5km/h 87% 0in /  0.0mm 0.00 W/m2
20:04 47.7 °F /  8.7 °C 44.1 °F /  6.7 °C 30.2in /  1022.2hPa WNW 8.9mph /  14.3km/h 10mph /  16.1km/h 87% 0in /  0.0mm 0.00 W/m2
20:09 47.8 °F /  8.8 °C 44.2 °F /  6.8 °C 30.2in /  1022.2hPa NW 12mph /  19.3km/h 12mph /  19.3km/h 87% 0in /  0.0mm 0.00 W/m2
20:14 47.8 °F /  8.8 °C 44.2 °F /  6.8 °C 30.2in /  1022.2hPa WNW 6mph /  9.7km/h 10mph /  16.1km/h 87% 0in /  0.0mm 0.00 W/m2
20:19 47.8 °F /  8.8 °C 44.2 °F /  6.8 °C 30.2in /  1022.2hPa WNW 6.9mph /  11.1km/h 11mph /  17.7km/h 87% 0in /  0.0mm 0.00 W/m2
20:24 47.8 °F /  8.8 °C 44.4 °F /  6.9 °C 30.2in /  1022.2hPa WNW 6mph /  9.7km/h 10mph /  16.1km/h 88% 0in /  0.0mm 0.00 W/m2
20:29 47.8 °F /  8.8 °C 44.4 °F /  6.9 °C 30.2in /  1022.2hPa WNW 4mph /  6.4km/h 10mph /  16.1km/h 88% 0in /  0.0mm 0.00 W/m2
20:34 47.8 °F /  8.8 °C 44.4 °F /  6.9 °C 30.2in /  1022.2hPa West 2.9mph /  4.7km/h 9mph /  14.5km/h 88% 0in /  0.0mm 0.00 W/m2
20:39 47.8 °F /  8.8 °C 44.4 °F /  6.9 °C 30.2in /  1022.2hPa WNW 8.1mph /  13.0km/h 10mph /  16.1km/h 88% 0in /  0.0mm 0.00 W/m2
20:44 48 °F /  8.9 °C 44.6 °F /  7.0 °C 30.2in /  1021.9hPa WNW 0.9mph /  1.4km/h 8mph /  12.9km/h 88% 0in /  0.0mm 0.00 W/m2
20:49 48 °F /  8.9 °C 44.6 °F /  7.0 °C 30.2in /  1021.9hPa WNW 4.9mph /  7.9km/h 9mph /  14.5km/h 88% 0in /  0.0mm 0.00 W/m2
20:54 48 °F /  8.9 °C 44.6 °F /  7.0 °C 30.2in /  1021.9hPa WNW 8.9mph /  14.3km/h 11mph /  17.7km/h 88% 0in /  0.0mm 0.00 W/m2
20:59 48.2 °F /  9.0 °C 44.8 °F /  7.1 °C 30.2in /  1022.2hPa WNW 4mph /  6.4km/h 10mph /  16.1km/h 88% 0in /  0.0mm 0.00 W/m2
21:04 48.2 °F /  9.0 °C 44.8 °F /  7.1 °C 30.2in /  1021.9hPa WNW 8.9mph /  14.3km/h 9mph /  14.5km/h 88% 0in /  0.0mm 0.00 W/m2
21:09 48.2 °F /  9.0 °C 44.8 °F /  7.1 °C 30.2in /  1021.9hPa WNW 6.9mph /  11.1km/h 10mph /  16.1km/h 88% 0in /  0.0mm 0.00 W/m2
21:14 48.2 °F /  9.0 °C 44.8 °F /  7.1 °C 30.2in /  1021.9hPa NW 6mph /  9.7km/h 10mph /  16.1km/h 88% 0in /  0.0mm 0.00 W/m2
21:19 48.2 °F /  9.0 °C 44.8 °F /  7.1 °C 30.2in /  1021.9hPa WNW 8.1mph /  13.0km/h 11mph /  17.7km/h 88% 0in /  0.0mm 0.00 W/m2
21:24 48.2 °F /  9.0 °C 44.8 °F /  7.1 °C 30.2in /  1021.9hPa NW 8.1mph /  13.0km/h 10mph /  16.1km/h 88% 0in /  0.0mm 0.00 W/m2
21:29 48.2 °F /  9.0 °C 44.8 °F /  7.1 °C 30.2in /  1021.9hPa WNW 8.9mph /  14.3km/h 14mph /  22.5km/h 88% 0in /  0.0mm 0.00 W/m2
21:34 48.4 °F /  9.1 °C 45 °F /  7.2 °C 30.2in /  1021.9hPa NW 6mph /  9.7km/h 13mph /  20.9km/h 88% 0in /  0.0mm 0.00 W/m2
21:39 48.4 °F /  9.1 °C 45 °F /  7.2 °C 30.2in /  1021.9hPa WNW 4.9mph /  7.9km/h 11mph /  17.7km/h 88% 0in /  0.0mm 0.00 W/m2
21:44 48.2 °F /  9.0 °C 44.8 °F /  7.1 °C 30.2in /  1021.9hPa NW 6mph /  9.7km/h 10mph /  16.1km/h 88% 0in /  0.0mm 0.00 W/m2
21:49 48.2 °F /  9.0 °C 44.8 °F /  7.1 °C 30.2in /  1021.9hPa WNW 6mph /  9.7km/h 12mph /  19.3km/h 88% 0in /  0.0mm 0.00 W/m2
21:54 48.2 °F /  9.0 °C 44.8 °F /  7.1 °C 30.2in /  1021.6hPa NW 6.9mph /  11.1km/h 11mph /  17.7km/h 88% 0in /  0.0mm 0.00 W/m2
21:59 48.2 °F /  9.0 °C 44.8 °F /  7.1 °C 30.2in /  1021.6hPa NW 8.1mph /  13.0km/h 12mph /  19.3km/h 88% 0in /  0.0mm 0.00 W/m2
22:04 48.2 °F /  9.0 °C 44.8 °F /  7.1 °C 30.2in /  1021.9hPa WNW 4.9mph /  7.9km/h 11mph /  17.7km/h 88% 0in /  0.0mm 0.00 W/m2
22:09 48 °F /  8.9 °C 44.6 °F /  7.0 °C 30.2in /  1021.6hPa NW 6mph /  9.7km/h 10mph /  16.1km/h 88% 0in /  0.0mm 0.00 W/m2
22:14 48.2 °F /  9.0 °C 44.8 °F /  7.1 °C 30.2in /  1021.6hPa NW 4.9mph /  7.9km/h 11mph /  17.7km/h 88% 0in /  0.0mm 0.00 W/m2
22:19 48.2 °F /  9.0 °C 44.8 °F /  7.1 °C 30.2in /  1021.6hPa NW 6mph /  9.7km/h 9mph /  14.5km/h 88% 0in /  0.0mm 0.00 W/m2
22:24 48.4 °F /  9.1 °C 45 °F /  7.2 °C 30.2in /  1021.6hPa WNW 4mph /  6.4km/h 12mph /  19.3km/h 88% 0in /  0.0mm 0.00 W/m2
22:29 48.4 °F /  9.1 °C 45 °F /  7.2 °C 30.2in /  1021.6hPa NW 2.9mph /  4.7km/h 7mph /  11.3km/h 88% 0in /  0.0mm 0.00 W/m2
22:34 48.6 °F /  9.2 °C 45.1 °F /  7.3 °C 30.2in /  1021.6hPa NW 6.9mph /  11.1km/h 9mph /  14.5km/h 88% 0in /  0.0mm 0.00 W/m2
22:39 48.7 °F /  9.3 °C 45.3 °F /  7.4 °C 30.2in /  1021.6hPa WNW 8.1mph /  13.0km/h 9mph /  14.5km/h 88% 0in /  0.0mm 0.00 W/m2
22:44 48.7 °F /  9.3 °C 45.3 °F /  7.4 °C 30.2in /  1021.6hPa WNW 6mph /  9.7km/h 9mph /  14.5km/h 88% 0in /  0.0mm 0.00 W/m2
22:49 48.7 °F /  9.3 °C 45.3 °F /  7.4 °C 30.2in /  1021.6hPa WNW 4.9mph /  7.9km/h 10mph /  16.1km/h 88% 0in /  0.0mm 0.00 W/m2
22:54 48.6 °F /  9.2 °C 45.1 °F /  7.3 °C 30.2in /  1021.2hPa NW 4.9mph /  7.9km/h 11mph /  17.7km/h 88% 0in /  0.0mm 0.00 W/m2
22:59 48.4 °F /  9.1 °C 45 °F /  7.2 °C 30.2in /  1021.6hPa West 4mph /  6.4km/h 12mph /  19.3km/h 88% 0in /  0.0mm 0.00 W/m2
23:04 48.4 °F /  9.1 °C 45.3 °F /  7.4 °C 30.2in /  1021.6hPa WNW 8.9mph /  14.3km/h 10mph /  16.1km/h 89% 0in /  0.0mm 0.00 W/m2
23:09 48.4 °F /  9.1 °C 45.3 °F /  7.4 °C 30.2in /  1021.6hPa WNW 4.9mph /  7.9km/h 10mph /  16.1km/h 89% 0in /  0.0mm 0.00 W/m2
23:14 48.4 °F /  9.1 °C 45.3 °F /  7.4 °C 30.2in /  1021.6hPa WNW 4mph /  6.4km/h 11mph /  17.7km/h 89% 0in /  0.0mm 0.00 W/m2
23:19 48.4 °F /  9.1 °C 45.3 °F /  7.4 °C 30.2in /  1021.2hPa NW 4.9mph /  7.9km/h 7mph /  11.3km/h 89% 0in /  0.0mm 0.00 W/m2
23:24 48.2 °F /  9.0 °C 45.1 °F /  7.3 °C 30.2in /  1021.2hPa West 2.9mph /  4.7km/h 9mph /  14.5km/h 89% 0in /  0.0mm 0.00 W/m2
23:29 48.4 °F /  9.1 °C 45.5 °F /  7.5 °C 30.2in /  1021.2hPa WNW 8.1mph /  13.0km/h 10mph /  16.1km/h 90% 0in /  0.0mm 0.00 W/m2
23:34 48.4 °F /  9.1 °C 45.5 °F /  7.5 °C 30.2in /  1021.2hPa NW 2.9mph /  4.7km/h 6mph /  9.7km/h 90% 0in /  0.0mm 0.00 W/m2
23:39 48.6 °F /  9.2 °C 45.7 °F /  7.6 °C 30.2in /  1021.2hPa WNW 4mph /  6.4km/h 10mph /  16.1km/h 90% 0in /  0.0mm 0.00 W/m2
23:44 48.4 °F /  9.1 °C 45.5 °F /  7.5 °C 30.2in /  1021.2hPa WNW 4mph /  6.4km/h 9mph /  14.5km/h 90% 0in /  0.0mm 0.00 W/m2
23:49 48.4 °F /  9.1 °C 45.5 °F /  7.5 °C 30.2in /  1021.2hPa NW 6.9mph /  11.1km/h 8mph /  12.9km/h 90% 0in /  0.0mm 0.00 W/m2
23:54 48.6 °F /  9.2 °C 45.7 °F /  7.6 °C 30.2in /  1021.2hPa WNW 4mph /  6.4km/h 8mph /  12.9km/h 90% 0in /  0.0mm 0.00 W/m2
23:59 48.6 °F /  9.2 °C 45.7 °F /  7.6 °C 30.2in /  1021.2hPa WNW 4mph /  6.4km/h 8mph /  12.9km/h 90% 0in /  0.0mm 0.00 W/m2